^^
Station Historical Data
Daily Summary for February 7, 2018 Units:  Both    English   Metric
« Previous Day
Next Day »
Daily Weekly Monthly Yearly Custom
  High: Low: Average:
Temperature: TemperatureF °F /  -17.8 °C 66.4 °F /  19.1 °C 76.7 °F /  24.8 °C
Dew Point: DewpointF °F /  -17.8 °C 49.1 °F /  9.5 °C 52.7 °F /  11.5 °C
Humidity: Humidity% 24% 45%
Wind Speed: WindSpeedMPHmph /  0km/h - 2.4mph /  3.9km/h
Wind Gust: WindSpeedGustMPHmph /  0km/h - -
Wind- - SE
Pressure: PressureIn in /  0 hPa 29.52 in /  999.5 hPa -
Precipitation: 0.01 in /  0.25 mm    
Historical Graphs
 
 
Tabular Data for February 7, 2018
Time Temperature Dew Point Pressure Wind Wind Speed Wind Gust Humidity Rainfall Rate (Hourly) solar Conditions
TemperatureF °F /  -17.8 °C DewpointF °F /  -17.8 °C PressureInin /  0hPa Calm     Humidity% HourlyPrecipInin /  0mm SolarRadiationWatts/m^2 W/m2 Conditions
00:03 70.2 °F /  21.2 °C 57.0 °F /  13.9 °C 29.67in /  1004.6hPa Calm   7.0mph /  11.3km/h 63% 0.00in /  0mm 0.0 W/m2
00:08 70.2 °F /  21.2 °C 57.0 °F /  13.9 °C 29.66in /  1004.3hPa ESE 4.0mph /  6.4km/h 6.0mph /  9.7km/h 63% 0.00in /  0mm 0.0 W/m2
00:13 70.0 °F /  21.1 °C 56.8 °F /  13.8 °C 29.66in /  1004.3hPa South 2.9mph /  4.7km/h 5.0mph /  8km/h 63% 0.00in /  0mm 0.0 W/m2
00:18 70.0 °F /  21.1 °C 56.8 °F /  13.8 °C 29.66in /  1004.3hPa Calm   2.0mph /  3.2km/h 63% 0.00in /  0mm 0.0 W/m2
00:23 70.0 °F /  21.1 °C 57.2 °F /  14 °C 29.65in /  1003.9hPa SE 2.0mph /  3.2km/h 7.0mph /  11.3km/h 64% 0.00in /  0mm 0.0 W/m2
00:29 69.6 °F /  20.9 °C 56.8 °F /  13.8 °C 29.65in /  1003.9hPa Calm   2.0mph /  3.2km/h 64% 0.00in /  0mm 0.0 W/m2
00:34 69.4 °F /  20.8 °C 57.2 °F /  14 °C 29.65in /  1003.9hPa Calm   2.0mph /  3.2km/h 65% 0.00in /  0mm 0.0 W/m2
00:39 69.4 °F /  20.8 °C 57.2 °F /  14 °C 29.65in /  1003.9hPa Calm   2.0mph /  3.2km/h 65% 0.00in /  0mm 0.0 W/m2
00:44 69.3 °F /  20.7 °C 57.0 °F /  13.9 °C 29.64in /  1003.6hPa ENE 2.0mph /  3.2km/h 3.0mph /  4.8km/h 65% 0.00in /  0mm 0.0 W/m2
00:49 69.1 °F /  20.6 °C 56.8 °F /  13.8 °C 29.64in /  1003.6hPa Calm   1.0mph /  1.6km/h 65% 0.00in /  0mm 0.0 W/m2
00:54 68.9 °F /  20.5 °C 57.0 °F /  13.9 °C 29.64in /  1003.6hPa ENE 0.9mph /  1.4km/h 1.0mph /  1.6km/h 66% 0.00in /  0mm 0.0 W/m2
00:59 68.7 °F /  20.4 °C 56.8 °F /  13.8 °C 29.64in /  1003.6hPa Calm   1.0mph /  1.6km/h 66% 0.00in /  0mm 0.0 W/m2
01:07 68.5 °F /  20.3 °C 56.3 °F /  13.5 °C 29.63in /  1003.3hPa SSE 6.0mph /  9.7km/h 10.0mph /  16.1km/h 65% 0.00in /  0mm 0.0 W/m2
01:27 68.5 °F /  20.3 °C 56.7 °F /  13.7 °C 29.62in /  1002.9hPa Calm   1.0mph /  1.6km/h 66% 0.00in /  0mm 0.0 W/m2
01:28 68.5 °F /  20.3 °C 56.7 °F /  13.7 °C 29.62in /  1002.9hPa Calm     66% 0.00in /  0mm 0.0 W/m2
01:36 68.5 °F /  20.3 °C 56.7 °F /  13.7 °C 29.62in /  1002.9hPa Calm     66% 0.00in /  0mm 0.0 W/m2
01:42 68.5 °F /  20.3 °C 56.3 °F /  13.5 °C 29.62in /  1002.9hPa Calm   3.0mph /  4.8km/h 65% 0.00in /  0mm 0.0 W/m2
01:47 68.7 °F /  20.4 °C 56.5 °F /  13.6 °C 29.63in /  1003.3hPa Calm   3.0mph /  4.8km/h 65% 0.00in /  0mm 0.0 W/m2
01:52 68.7 °F /  20.4 °C 56.5 °F /  13.6 °C 29.63in /  1003.3hPa Calm   5.0mph /  8km/h 65% 0.00in /  0mm 0.0 W/m2
01:57 68.7 °F /  20.4 °C 56.5 °F /  13.6 °C 29.63in /  1003.3hPa ESE 6.0mph /  9.7km/h 11.0mph /  17.7km/h 65% 0.00in /  0mm 0.0 W/m2
02:02 68.7 °F /  20.4 °C 56.5 °F /  13.6 °C 29.63in /  1003.3hPa ESE 0.9mph /  1.4km/h 8.0mph /  12.9km/h 65% 0.00in /  0mm 0.0 W/m2
02:08 68.7 °F /  20.4 °C 56.5 °F /  13.6 °C 29.63in /  1003.3hPa SE 6.9mph /  11.1km/h 8.0mph /  12.9km/h 65% 0.00in /  0mm 0.0 W/m2
02:13 68.5 °F /  20.3 °C 55.4 °F /  13 °C 29.63in /  1003.3hPa SE 4.9mph /  7.9km/h 5.0mph /  8km/h 63% 0.00in /  0mm 0.0 W/m2
02:18 68.5 °F /  20.3 °C 55.0 °F /  12.8 °C 29.63in /  1003.3hPa SSE 0.9mph /  1.4km/h 3.0mph /  4.8km/h 62% 0.00in /  0mm 0.0 W/m2
02:23 68.5 °F /  20.3 °C 54.1 °F /  12.3 °C 29.63in /  1003.3hPa SSW 2.0mph /  3.2km/h 7.0mph /  11.3km/h 60% 0.00in /  0mm 0.0 W/m2
02:28 68.5 °F /  20.3 °C 53.6 °F /  12 °C 29.62in /  1002.9hPa Calm   9.0mph /  14.5km/h 59% 0.00in /  0mm 0.0 W/m2
02:33 68.7 °F /  20.4 °C 53.8 °F /  12.1 °C 29.63in /  1003.3hPa ESE 4.9mph /  7.9km/h 6.0mph /  9.7km/h 59% 0.00in /  0mm 0.0 W/m2
02:38 68.5 °F /  20.3 °C 53.6 °F /  12 °C 29.63in /  1003.3hPa Calm   6.0mph /  9.7km/h 59% 0.00in /  0mm 0.0 W/m2
02:44 68.5 °F /  20.3 °C 53.6 °F /  12 °C 29.63in /  1003.3hPa ESE 2.9mph /  4.7km/h 6.0mph /  9.7km/h 59% 0.00in /  0mm 0.0 W/m2
02:49 68.5 °F /  20.3 °C 53.2 °F /  11.8 °C 29.63in /  1003.3hPa East 2.0mph /  3.2km/h 6.0mph /  9.7km/h 58% 0.00in /  0mm 0.0 W/m2
02:54 68.5 °F /  20.3 °C 53.6 °F /  12 °C 29.63in /  1003.3hPa ENE 0.9mph /  1.4km/h 5.0mph /  8km/h 59% 0.00in /  0mm 0.0 W/m2
02:59 68.5 °F /  20.3 °C 53.6 °F /  12 °C 29.63in /  1003.3hPa East 4.9mph /  7.9km/h 8.0mph /  12.9km/h 59% 0.00in /  0mm 0.0 W/m2
03:04 68.5 °F /  20.3 °C 54.1 °F /  12.3 °C 29.63in /  1003.3hPa Calm   5.0mph /  8km/h 60% 0.00in /  0mm 0.0 W/m2
03:09 68.5 °F /  20.3 °C 53.6 °F /  12 °C 29.63in /  1003.3hPa ENE 4.0mph /  6.4km/h 8.0mph /  12.9km/h 59% 0.00in /  0mm 0.0 W/m2
03:14 68.5 °F /  20.3 °C 53.6 °F /  12 °C 29.63in /  1003.3hPa ESE 2.0mph /  3.2km/h 2.0mph /  3.2km/h 59% 0.00in /  0mm 0.0 W/m2
03:19 68.4 °F /  20.2 °C 53.4 °F /  11.9 °C 29.63in /  1003.3hPa East 8.1mph /  13km/h 8.1mph /  13km/h 59% 0.00in /  0mm 0.0 W/m2
03:25 68.4 °F /  20.2 °C 53.4 °F /  11.9 °C 29.63in /  1003.3hPa ESE 2.9mph /  4.7km/h 14.0mph /  22.5km/h 59% 0.00in /  0mm 0.0 W/m2
03:30 68.5 °F /  20.3 °C 53.6 °F /  12 °C 29.63in /  1003.3hPa Calm   5.0mph /  8km/h 59% 0.00in /  0mm 0.0 W/m2
03:35 68.4 °F /  20.2 °C 53.4 °F /  11.9 °C 29.63in /  1003.3hPa Calm   5.0mph /  8km/h 59% 0.00in /  0mm 0.0 W/m2
03:40 68.4 °F /  20.2 °C 53.4 °F /  11.9 °C 29.62in /  1002.9hPa Calm   3.0mph /  4.8km/h 59% 0.00in /  0mm 0.0 W/m2
03:45 68.4 °F /  20.2 °C 53.4 °F /  11.9 °C 29.62in /  1002.9hPa ESE 2.9mph /  4.7km/h 4.0mph /  6.4km/h 59% 0.00in /  0mm 0.0 W/m2
03:50 68.2 °F /  20.1 °C 53.2 °F /  11.8 °C 29.62in /  1002.9hPa Calm   3.0mph /  4.8km/h 59% 0.00in /  0mm 0.0 W/m2
03:55 68.2 °F /  20.1 °C 53.2 °F /  11.8 °C 29.62in /  1002.9hPa SE 2.0mph /  3.2km/h 6.0mph /  9.7km/h 59% 0.00in /  0mm 0.0 W/m2
04:00 67.8 °F /  19.9 °C 52.9 °F /  11.6 °C 29.62in /  1002.9hPa NNE 0.9mph /  1.4km/h 3.0mph /  4.8km/h 59% 0.00in /  0mm 0.0 W/m2
04:05 67.8 °F /  19.9 °C 52.9 °F /  11.6 °C 29.62in /  1002.9hPa ENE 0.9mph /  1.4km/h 2.0mph /  3.2km/h 59% 0.00in /  0mm 0.0 W/m2
04:11 67.6 °F /  19.8 °C 52.3 °F /  11.3 °C 29.62in /  1002.9hPa ESE 0.9mph /  1.4km/h 4.0mph /  6.4km/h 58% 0.00in /  0mm 0.0 W/m2
04:16 67.6 °F /  19.8 °C 52.9 °F /  11.6 °C 29.62in /  1002.9hPa ESE 2.0mph /  3.2km/h 4.0mph /  6.4km/h 59% 0.00in /  0mm 0.0 W/m2
04:21 67.5 °F /  19.7 °C 52.7 °F /  11.5 °C 29.62in /  1002.9hPa East 2.0mph /  3.2km/h 6.0mph /  9.7km/h 59% 0.00in /  0mm 0.0 W/m2
04:26 67.3 °F /  19.6 °C 52.5 °F /  11.4 °C 29.62in /  1002.9hPa NE 2.9mph /  4.7km/h 5.0mph /  8km/h 59% 0.00in /  0mm 0.0 W/m2
04:31 67.3 °F /  19.6 °C 51.1 °F /  10.6 °C 29.62in /  1002.9hPa ENE 0.9mph /  1.4km/h 15.0mph /  24.1km/h 56% 0.00in /  0mm 0.0 W/m2
04:36 67.5 °F /  19.7 °C 51.6 °F /  10.9 °C 29.62in /  1002.9hPa East 2.0mph /  3.2km/h 2.0mph /  3.2km/h 57% 0.00in /  0mm 0.0 W/m2
04:41 67.5 °F /  19.7 °C 52.2 °F /  11.2 °C 29.62in /  1002.9hPa NE 0.9mph /  1.4km/h 5.0mph /  8km/h 58% 0.00in /  0mm 0.0 W/m2
04:46 67.5 °F /  19.7 °C 51.3 °F /  10.7 °C 29.62in /  1002.9hPa Calm   9.0mph /  14.5km/h 56% 0.00in /  0mm 0.0 W/m2
04:51 67.3 °F /  19.6 °C 51.1 °F /  10.6 °C 29.62in /  1002.9hPa Calm   6.0mph /  9.7km/h 56% 0.00in /  0mm 0.0 W/m2
04:57 67.3 °F /  19.6 °C 51.1 °F /  10.6 °C 29.62in /  1002.9hPa Calm   3.0mph /  4.8km/h 56% 0.00in /  0mm 0.0 W/m2
05:02 67.3 °F /  19.6 °C 51.4 °F /  10.8 °C 29.62in /  1002.9hPa Calm   1.0mph /  1.6km/h 57% 0.00in /  0mm 0.0 W/m2
05:07 66.9 °F /  19.4 °C 49.8 °F /  9.9 °C 29.62in /  1002.9hPa ESE 0.9mph /  1.4km/h 7.0mph /  11.3km/h 54% 0.00in /  0mm 0.0 W/m2
05:12 66.9 °F /  19.4 °C 49.8 °F /  9.9 °C 29.62in /  1002.9hPa ESE 2.9mph /  4.7km/h 3.0mph /  4.8km/h 54% 0.00in /  0mm 0.0 W/m2
05:17 66.9 °F /  19.4 °C 49.3 °F /  9.6 °C 29.62in /  1002.9hPa East 2.0mph /  3.2km/h 5.0mph /  8km/h 53% 0.00in /  0mm 0.0 W/m2
05:23 66.7 °F /  19.3 °C 49.1 °F /  9.5 °C 29.62in /  1002.9hPa SE 2.0mph /  3.2km/h 5.0mph /  8km/h 53% 0.00in /  0mm 0.0 W/m2
05:28 66.9 °F /  19.4 °C 49.3 °F /  9.6 °C 29.62in /  1002.9hPa SE 2.9mph /  4.7km/h 7.0mph /  11.3km/h 53% 0.00in /  0mm 0.0 W/m2
05:33 66.9 °F /  19.4 °C 49.3 °F /  9.6 °C 29.62in /  1002.9hPa ESE 4.0mph /  6.4km/h 6.0mph /  9.7km/h 53% 0.00in /  0mm 0.0 W/m2
05:38 66.9 °F /  19.4 °C 49.3 °F /  9.6 °C 29.62in /  1002.9hPa NNE 2.0mph /  3.2km/h 4.0mph /  6.4km/h 53% 0.00in /  0mm 0.0 W/m2
05:43 66.9 °F /  19.4 °C 49.3 °F /  9.6 °C 29.62in /  1002.9hPa Calm   2.0mph /  3.2km/h 53% 0.00in /  0mm 0.0 W/m2
05:48 66.7 °F /  19.3 °C 49.1 °F /  9.5 °C 29.62in /  1002.9hPa NNE 2.0mph /  3.2km/h 5.0mph /  8km/h 53% 0.00in /  0mm 0.0 W/m2
05:54 66.7 °F /  19.3 °C 49.6 °F /  9.8 °C 29.62in /  1002.9hPa NE 2.9mph /  4.7km/h 3.0mph /  4.8km/h 54% 0.00in /  0mm 0.0 W/m2
05:59 66.7 °F /  19.3 °C 50.0 °F /  10 °C 29.62in /  1002.9hPa West 0.9mph /  1.4km/h 7.0mph /  11.3km/h 55% 0.00in /  0mm 0.0 W/m2
06:04 66.6 °F /  19.2 °C 49.5 °F /  9.7 °C 29.62in /  1002.9hPa ENE 0.9mph /  1.4km/h 7.0mph /  11.3km/h 54% 0.00in /  0mm 0.0 W/m2
06:09 66.6 °F /  19.2 °C 49.5 °F /  9.7 °C 29.63in /  1003.3hPa NE 2.9mph /  4.7km/h 5.0mph /  8km/h 54% 0.00in /  0mm 0.0 W/m2
06:14 66.6 °F /  19.2 °C 49.8 °F /  9.9 °C 29.63in /  1003.3hPa East 2.9mph /  4.7km/h 8.0mph /  12.9km/h 55% 0.00in /  0mm 0.0 W/m2
06:19 66.4 °F /  19.1 °C 49.6 °F /  9.8 °C 29.63in /  1003.3hPa ENE 2.0mph /  3.2km/h 5.0mph /  8km/h 55% 0.00in /  0mm 0.0 W/m2
06:24 66.4 °F /  19.1 °C 49.6 °F /  9.8 °C 29.63in /  1003.3hPa ESE 6.9mph /  11.1km/h 7.0mph /  11.3km/h 55% 0.00in /  0mm 0.0 W/m2
06:29 66.6 °F /  19.2 °C 49.5 °F /  9.7 °C 29.63in /  1003.3hPa Calm   8.0mph /  12.9km/h 54% 0.00in /  0mm 0.0 W/m2
06:35 66.6 °F /  19.2 °C 49.8 °F /  9.9 °C 29.63in /  1003.3hPa East 4.0mph /  6.4km/h 6.0mph /  9.7km/h 55% 0.00in /  0mm 0.0 W/m2
06:40 66.6 °F /  19.2 °C 49.5 °F /  9.7 °C 29.63in /  1003.3hPa ESE 2.9mph /  4.7km/h 7.0mph /  11.3km/h 54% 0.00in /  0mm 0.0 W/m2
06:45 66.6 °F /  19.2 °C 49.8 °F /  9.9 °C 29.63in /  1003.3hPa Calm   3.0mph /  4.8km/h 55% 0.00in /  0mm 5.0 W/m2
06:50 66.6 °F /  19.2 °C 49.5 °F /  9.7 °C 29.63in /  1003.3hPa ENE 4.0mph /  6.4km/h 9.0mph /  14.5km/h 54% 0.00in /  0mm 7.0 W/m2
06:55 66.6 °F /  19.2 °C 49.5 °F /  9.7 °C 29.64in /  1003.6hPa ENE 0.9mph /  1.4km/h 6.0mph /  9.7km/h 54% 0.00in /  0mm 11.0 W/m2
07:00 66.6 °F /  19.2 °C 49.8 °F /  9.9 °C 29.64in /  1003.6hPa Calm   4.0mph /  6.4km/h 55% 0.00in /  0mm 12.0 W/m2
07:05 66.6 °F /  19.2 °C 49.5 °F /  9.7 °C 29.64in /  1003.6hPa Calm   6.0mph /  9.7km/h 54% 0.00in /  0mm 16.0 W/m2
07:10 66.6 °F /  19.2 °C 49.5 °F /  9.7 °C 29.65in /  1003.9hPa ENE 0.9mph /  1.4km/h 5.0mph /  8km/h 54% 0.00in /  0mm 18.0 W/m2
07:15 66.6 °F /  19.2 °C 49.5 °F /  9.7 °C 29.65in /  1003.9hPa SE 2.0mph /  3.2km/h 8.0mph /  12.9km/h 54% 0.00in /  0mm 19.0 W/m2
07:20 66.7 °F /  19.3 °C 49.6 °F /  9.8 °C 29.65in /  1003.9hPa ESE 6.0mph /  9.7km/h 10.0mph /  16.1km/h 54% 0.00in /  0mm 21.0 W/m2
07:25 66.9 °F /  19.4 °C 49.3 °F /  9.6 °C 29.65in /  1003.9hPa South 6.0mph /  9.7km/h 10.0mph /  16.1km/h 53% 0.00in /  0mm 23.0 W/m2
07:31 67.3 °F /  19.6 °C 49.6 °F /  9.8 °C 29.65in /  1003.9hPa SE 6.9mph /  11.1km/h 12.0mph /  19.3km/h 53% 0.00in /  0mm 23.0 W/m2
07:36 67.5 °F /  19.7 °C 49.8 °F /  9.9 °C 29.66in /  1004.3hPa SE 4.9mph /  7.9km/h 10.0mph /  16.1km/h 53% 0.00in /  0mm 25.0 W/m2
07:41 67.6 °F /  19.8 °C 49.5 °F /  9.7 °C 29.66in /  1004.3hPa ESE 2.9mph /  4.7km/h 11.0mph /  17.7km/h 52% 0.00in /  0mm 26.0 W/m2
07:46 67.8 °F /  19.9 °C 49.6 °F /  9.8 °C 29.66in /  1004.3hPa SSE 4.9mph /  7.9km/h 10.0mph /  16.1km/h 52% 0.00in /  0mm 28.0 W/m2
07:51 68.2 °F /  20.1 °C 49.8 °F /  9.9 °C 29.66in /  1004.3hPa ENE 2.9mph /  4.7km/h 8.0mph /  12.9km/h 52% 0.00in /  0mm 30.0 W/m2
07:56 68.4 °F /  20.2 °C 49.5 °F /  9.7 °C 29.66in /  1004.3hPa ESE 4.9mph /  7.9km/h 12.0mph /  19.3km/h 51% 0.00in /  0mm 32.0 W/m2
08:01 68.5 °F /  20.3 °C 49.6 °F /  9.8 °C 29.66in /  1004.3hPa ESE 6.9mph /  11.1km/h 12.0mph /  19.3km/h 51% 0.00in /  0mm 33.0 W/m2
08:06 68.7 °F /  20.4 °C 49.8 °F /  9.9 °C 29.66in /  1004.3hPa South 2.9mph /  4.7km/h 10.0mph /  16.1km/h 51% 0.00in /  0mm 35.0 W/m2
08:11 69.1 °F /  20.6 °C 49.6 °F /  9.8 °C 29.66in /  1004.3hPa ESE 4.9mph /  7.9km/h 8.0mph /  12.9km/h 50% 0.00in /  0mm 39.0 W/m2
08:16 69.3 °F /  20.7 °C 49.8 °F /  9.9 °C 29.66in /  1004.3hPa SE 2.9mph /  4.7km/h 5.0mph /  8km/h 50% 0.00in /  0mm 47.0 W/m2
08:22 69.6 °F /  20.9 °C 49.6 °F /  9.8 °C 29.67in /  1004.6hPa ESE 4.9mph /  7.9km/h 12.0mph /  19.3km/h 49% 0.00in /  0mm 65.0 W/m2
08:27 70.0 °F /  21.1 °C 50.5 °F /  10.3 °C 29.67in /  1004.6hPa SE 8.9mph /  14.3km/h 9.0mph /  14.5km/h 50% 0.00in /  0mm 102.0 W/m2
08:32 70.2 °F /  21.2 °C 50.2 °F /  10.1 °C 29.67in /  1004.6hPa ESE 4.9mph /  7.9km/h 8.0mph /  12.9km/h 49% 0.00in /  0mm 116.0 W/m2
08:37 70.2 °F /  21.2 °C 50.2 °F /  10.1 °C 29.67in /  1004.6hPa SE 10.1mph /  16.3km/h 10.1mph /  16.3km/h 49% 0.00in /  0mm 420.0 W/m2
08:42 70.3 °F /  21.3 °C 50.4 °F /  10.2 °C 29.67in /  1004.6hPa ESE 2.0mph /  3.2km/h 9.0mph /  14.5km/h 49% 0.00in /  0mm 459.0 W/m2
08:47 70.7 °F /  21.5 °C 50.5 °F /  10.3 °C 29.67in /  1004.6hPa East 2.9mph /  4.7km/h 7.0mph /  11.3km/h 49% 0.00in /  0mm 276.0 W/m2
08:52 70.9 °F /  21.6 °C 50.7 °F /  10.4 °C 29.67in /  1004.6hPa ENE 2.9mph /  4.7km/h 5.0mph /  8km/h 49% 0.00in /  0mm 404.0 W/m2
08:57 71.1 °F /  21.7 °C 50.4 °F /  10.2 °C 29.67in /  1004.6hPa SSE 4.9mph /  7.9km/h 8.0mph /  12.9km/h 48% 0.00in /  0mm 128.0 W/m2
09:02 71.6 °F /  22 °C 50.9 °F /  10.5 °C 29.67in /  1004.6hPa ESE 6.0mph /  9.7km/h 7.0mph /  11.3km/h 48% 0.00in /  0mm 552.0 W/m2
09:07 72.3 °F /  22.4 °C 50.9 °F /  10.5 °C 29.67in /  1004.6hPa Calm   6.0mph /  9.7km/h 47% 0.00in /  0mm 580.0 W/m2
09:13 73.2 °F /  22.9 °C 51.3 °F /  10.7 °C 29.67in /  1004.6hPa ESE 2.9mph /  4.7km/h 5.0mph /  8km/h 46% 0.00in /  0mm 596.0 W/m2
09:18 73.8 °F /  23.2 °C 51.1 °F /  10.6 °C 29.67in /  1004.6hPa South 0.9mph /  1.4km/h 4.0mph /  6.4km/h 45% 0.00in /  0mm 606.0 W/m2
09:23 74.3 °F /  23.5 °C 51.6 °F /  10.9 °C 29.66in /  1004.3hPa Calm   6.0mph /  9.7km/h 45% 0.00in /  0mm 628.0 W/m2
09:28 74.8 °F /  23.8 °C 51.4 °F /  10.8 °C 29.66in /  1004.3hPa South 4.0mph /  6.4km/h 6.0mph /  9.7km/h 44% 0.00in /  0mm 675.0 W/m2
09:33 75.0 °F /  23.9 °C 51.6 °F /  10.9 °C 29.66in /  1004.3hPa NNE 2.0mph /  3.2km/h 6.0mph /  9.7km/h 44% 0.00in /  0mm 708.0 W/m2
09:38 75.7 °F /  24.3 °C 51.6 °F /  10.9 °C 29.66in /  1004.3hPa East 2.0mph /  3.2km/h 5.0mph /  8km/h 43% 0.00in /  0mm 708.0 W/m2
09:43 76.5 °F /  24.7 °C 51.6 °F /  10.9 °C 29.66in /  1004.3hPa ENE 4.0mph /  6.4km/h 6.0mph /  9.7km/h 42% 0.00in /  0mm 696.0 W/m2
09:48 77.2 °F /  25.1 °C 51.6 °F /  10.9 °C 29.66in /  1004.3hPa NNE 4.0mph /  6.4km/h 7.0mph /  11.3km/h 41% 0.00in /  0mm 703.0 W/m2
09:53 77.5 °F /  25.3 °C 52.0 °F /  11.1 °C 29.66in /  1004.3hPa Calm   6.0mph /  9.7km/h 41% 0.00in /  0mm 717.0 W/m2
09:58 77.7 °F /  25.4 °C 52.2 °F /  11.2 °C 29.66in /  1004.3hPa Calm   3.0mph /  4.8km/h 41% 0.00in /  0mm 742.0 W/m2
10:03 78.1 °F /  25.6 °C 52.5 °F /  11.4 °C 29.66in /  1004.3hPa ESE 4.0mph /  6.4km/h 7.0mph /  11.3km/h 41% 0.00in /  0mm 754.0 W/m2
10:09 78.4 °F /  25.8 °C 53.4 °F /  11.9 °C 29.66in /  1004.3hPa ENE 4.0mph /  6.4km/h 9.0mph /  14.5km/h 42% 0.00in /  0mm 766.0 W/m2
10:14 79.0 °F /  26.1 °C 52.5 °F /  11.4 °C 29.66in /  1004.3hPa ESE 4.9mph /  7.9km/h 8.0mph /  12.9km/h 40% 0.00in /  0mm 793.0 W/m2
10:19 79.5 °F /  26.4 °C 53.8 °F /  12.1 °C 29.65in /  1003.9hPa SE 0.9mph /  1.4km/h 7.0mph /  11.3km/h 41% 0.00in /  0mm 788.0 W/m2
10:24 80.1 °F /  26.7 °C 53.6 °F /  12 °C 29.66in /  1004.3hPa SE 4.0mph /  6.4km/h 10.0mph /  16.1km/h 40% 0.00in /  0mm 830.0 W/m2
10:29 80.2 °F /  26.8 °C 53.8 °F /  12.1 °C 29.66in /  1004.3hPa ESE 4.0mph /  6.4km/h 8.0mph /  12.9km/h 40% 0.00in /  0mm 828.0 W/m2
10:34 80.2 °F /  26.8 °C 53.8 °F /  12.1 °C 29.65in /  1003.9hPa SSE 4.0mph /  6.4km/h 5.0mph /  8km/h 40% 0.00in /  0mm 773.0 W/m2
10:39 80.4 °F /  26.9 °C 54.0 °F /  12.2 °C 29.65in /  1003.9hPa SSW 14.1mph /  22.7km/h 14.1mph /  22.7km/h 40% 0.00in /  0mm 773.0 W/m2
10:45 80.8 °F /  27.1 °C 53.6 °F /  12 °C 29.65in /  1003.9hPa ESE 4.9mph /  7.9km/h 8.0mph /  12.9km/h 39% 0.00in /  0mm 879.0 W/m2
10:50 81.1 °F /  27.3 °C 53.8 °F /  12.1 °C 29.65in /  1003.9hPa SSE 6.9mph /  11.1km/h 10.0mph /  16.1km/h 39% 0.00in /  0mm 918.0 W/m2
10:56 81.7 °F /  27.6 °C 54.3 °F /  12.4 °C 29.65in /  1003.9hPa SE 6.0mph /  9.7km/h 7.0mph /  11.3km/h 39% 0.00in /  0mm 914.0 W/m2
11:01 81.9 °F /  27.7 °C 53.8 °F /  12.1 °C 29.65in /  1003.9hPa East 2.9mph /  4.7km/h 8.0mph /  12.9km/h 38% 0.00in /  0mm 471.0 W/m2
11:06 82.0 °F /  27.8 °C 54.0 °F /  12.2 °C 29.65in /  1003.9hPa SE 4.0mph /  6.4km/h 6.0mph /  9.7km/h 38% 0.00in /  0mm 608.0 W/m2
11:12 82.2 °F /  27.9 °C 53.4 °F /  11.9 °C 29.65in /  1003.9hPa Calm   8.0mph /  12.9km/h 37% 0.00in /  0mm 659.0 W/m2
11:17 82.2 °F /  27.9 °C 53.4 °F /  11.9 °C 29.65in /  1003.9hPa NE 2.9mph /  4.7km/h 11.0mph /  17.7km/h 37% 0.00in /  0mm 587.0 W/m2
11:23 82.8 °F /  28.2 °C 53.8 °F /  12.1 °C 29.65in /  1003.9hPa East 0.9mph /  1.4km/h 7.0mph /  11.3km/h 37% 0.00in /  0mm 796.0 W/m2
11:28 83.5 °F /  28.6 °C 53.8 °F /  12.1 °C 29.64in /  1003.6hPa SE 0.9mph /  1.4km/h 4.0mph /  6.4km/h 36% 0.00in /  0mm 1028.0 W/m2
11:33 83.8 °F /  28.8 °C 54.0 °F /  12.2 °C 29.65in /  1003.9hPa SE 8.9mph /  14.3km/h 10.0mph /  16.1km/h 36% 0.00in /  0mm 983.0 W/m2
11:38 84.0 °F /  28.9 °C 53.4 °F /  11.9 °C 29.64in /  1003.6hPa North 2.9mph /  4.7km/h 5.0mph /  8km/h 35% 0.00in /  0mm 657.0 W/m2
11:44 84.2 °F /  29 °C 53.6 °F /  12 °C 29.64in /  1003.6hPa SE 2.9mph /  4.7km/h 6.0mph /  9.7km/h 35% 0.00in /  0mm 657.0 W/m2
11:49 84.2 °F /  29 °C 52.7 °F /  11.5 °C 29.64in /  1003.6hPa NNE 4.9mph /  7.9km/h 7.0mph /  11.3km/h 34% 0.00in /  0mm 480.0 W/m2
11:54 84.6 °F /  29.2 °C 53.1 °F /  11.7 °C 29.63in /  1003.3hPa NE 0.9mph /  1.4km/h 7.0mph /  11.3km/h 34% 0.00in /  0mm 1230.0 W/m2
11:59 84.7 °F /  29.3 °C 52.5 °F /  11.4 °C 29.63in /  1003.3hPa Calm   6.0mph /  9.7km/h 33% 0.00in /  0mm 1174.0 W/m2
12:04 84.9 °F /  29.4 °C 53.4 °F /  11.9 °C 29.63in /  1003.3hPa Calm   10.0mph /  16.1km/h 34% 0.00in /  0mm 367.0 W/m2
12:09 84.7 °F /  29.3 °C 53.2 °F /  11.8 °C 29.63in /  1003.3hPa Calm   10.0mph /  16.1km/h 34% 0.00in /  0mm 367.0 W/m2
12:14 84.9 °F /  29.4 °C 50.9 °F /  10.5 °C 29.63in /  1003.3hPa ESE 4.0mph /  6.4km/h 11.0mph /  17.7km/h 31% 0.00in /  0mm 981.0 W/m2
12:19 85.3 °F /  29.6 °C 51.3 °F /  10.7 °C 29.63in /  1003.3hPa SSE 0.9mph /  1.4km/h 9.0mph /  14.5km/h 31% 0.00in /  0mm 1116.0 W/m2
12:24 85.6 °F /  29.8 °C 52.3 °F /  11.3 °C 29.62in /  1002.9hPa ESE 2.9mph /  4.7km/h 10.0mph /  16.1km/h 32% 0.00in /  0mm 1334.0 W/m2
12:29 85.6 °F /  29.8 °C 50.7 °F /  10.4 °C 29.62in /  1002.9hPa Calm   4.0mph /  6.4km/h 30% 0.00in /  0mm 432.0 W/m2
12:34 85.5 °F /  29.7 °C 51.4 °F /  10.8 °C 29.62in /  1002.9hPa South 6.0mph /  9.7km/h 9.0mph /  14.5km/h 31% 0.00in /  0mm 243.0 W/m2
12:40 85.3 °F /  29.6 °C 52.2 °F /  11.2 °C 29.62in /  1002.9hPa NE 2.9mph /  4.7km/h 4.0mph /  6.4km/h 32% 0.00in /  0mm 1287.0 W/m2
12:45 86.4 °F /  30.2 °C 53.1 °F /  11.7 °C 29.61in /  1002.6hPa SSE 6.0mph /  9.7km/h 9.0mph /  14.5km/h 32% 0.00in /  0mm 1222.0 W/m2
12:50 87.3 °F /  30.7 °C 52.9 °F /  11.6 °C 29.61in /  1002.6hPa ENE 2.9mph /  4.7km/h 6.0mph /  9.7km/h 31% 0.00in /  0mm 290.0 W/m2
12:55 87.3 °F /  30.7 °C 52.9 °F /  11.6 °C 29.61in /  1002.6hPa East 4.9mph /  7.9km/h 5.0mph /  8km/h 31% 0.00in /  0mm 323.0 W/m2
13:00 87.3 °F /  30.7 °C 52.0 °F /  11.1 °C 29.61in /  1002.6hPa South 0.9mph /  1.4km/h 2.0mph /  3.2km/h 30% 0.00in /  0mm 1260.0 W/m2
13:06 86.7 °F /  30.4 °C 52.5 °F /  11.4 °C 29.61in /  1002.6hPa SE 4.9mph /  7.9km/h 8.0mph /  12.9km/h 31% 0.00in /  0mm 246.0 W/m2
13:11 86.4 °F /  30.2 °C 52.2 °F /  11.2 °C 29.61in /  1002.6hPa SSE 2.9mph /  4.7km/h 8.0mph /  12.9km/h 31% 0.00in /  0mm 278.0 W/m2
13:16 86.2 °F /  30.1 °C 52.0 °F /  11.1 °C 29.61in /  1002.6hPa Calm   6.0mph /  9.7km/h 31% 0.00in /  0mm 276.0 W/m2
13:22 86.0 °F /  30 °C 50.9 °F /  10.5 °C 29.60in /  1002.3hPa SE 2.0mph /  3.2km/h 9.0mph /  14.5km/h 30% 0.00in /  0mm 292.0 W/m2
13:27 85.6 °F /  29.8 °C 51.6 °F /  10.9 °C 29.60in /  1002.3hPa SE 0.9mph /  1.4km/h 7.0mph /  11.3km/h 31% 0.00in /  0mm 267.0 W/m2
13:32 85.5 °F /  29.7 °C 52.2 °F /  11.2 °C 29.60in /  1002.3hPa ENE 2.9mph /  4.7km/h 4.0mph /  6.4km/h 32% 0.00in /  0mm 304.0 W/m2
13:37 85.5 °F /  29.7 °C 52.2 °F /  11.2 °C 29.60in /  1002.3hPa NNW 0.9mph /  1.4km/h 7.0mph /  11.3km/h 32% 0.00in /  0mm 357.0 W/m2
13:42 85.8 °F /  29.9 °C 51.6 °F /  10.9 °C 29.59in /  1001.9hPa East 8.1mph /  13km/h 9.0mph /  14.5km/h 31% 0.00in /  0mm 1041.0 W/m2
13:47 87.1 °F /  30.6 °C 51.8 °F /  11 °C 29.59in /  1001.9hPa East 4.0mph /  6.4km/h 9.0mph /  14.5km/h 30% 0.00in /  0mm 1331.0 W/m2
13:52 88.0 °F /  31.1 °C 51.8 °F /  11 °C 29.59in /  1001.9hPa East 2.9mph /  4.7km/h 9.0mph /  14.5km/h 29% 0.00in /  0mm 1308.0 W/m2
13:58 88.5 °F /  31.4 °C 52.2 °F /  11.2 °C 29.59in /  1001.9hPa NNE 6.9mph /  11.1km/h 7.0mph /  11.3km/h 29% 0.00in /  0mm 1288.0 W/m2
14:03 89.1 °F /  31.7 °C 51.8 °F /  11 °C 29.59in /  1001.9hPa East 6.9mph /  11.1km/h 12.0mph /  19.3km/h 28% 0.00in /  0mm 434.0 W/m2
14:08 89.1 °F /  31.7 °C 50.7 °F /  10.4 °C 29.59in /  1001.9hPa Calm   7.0mph /  11.3km/h 27% 0.00in /  0mm 427.0 W/m2
14:13 88.3 °F /  31.3 °C 52.0 °F /  11.1 °C 29.58in /  1001.6hPa ESE 2.0mph /  3.2km/h 6.0mph /  9.7km/h 29% 0.00in /  0mm 413.0 W/m2
14:18 88.3 °F /  31.3 °C 52.0 °F /  11.1 °C 29.58in /  1001.6hPa NE 6.9mph /  11.1km/h 9.0mph /  14.5km/h 29% 0.00in /  0mm 1325.0 W/m2
14:23 89.1 °F /  31.7 °C 52.7 °F /  11.5 °C 29.58in /  1001.6hPa ENE 4.0mph /  6.4km/h 6.0mph /  9.7km/h 29% 0.00in /  0mm 1123.0 W/m2
14:28 89.8 °F /  32.1 °C 52.3 °F /  11.3 °C 29.58in /  1001.6hPa Calm   7.0mph /  11.3km/h 28% 0.00in /  0mm 1296.0 W/m2
14:33 90.7 °F /  32.6 °C 52.2 °F /  11.2 °C 29.58in /  1001.6hPa ESE 0.9mph /  1.4km/h 10.0mph /  16.1km/h 27% 0.00in /  0mm 1259.0 W/m2
14:39 91.4 °F /  33 °C 51.6 °F /  10.9 °C 29.57in /  1001.2hPa ESE 6.0mph /  9.7km/h 10.0mph /  16.1km/h 26% 0.00in /  0mm 1204.0 W/m2
14:44 91.8 °F /  33.2 °C 53.1 °F /  11.7 °C 29.57in /  1001.2hPa Calm   4.0mph /  6.4km/h 27% 0.00in /  0mm 1137.0 W/m2
14:50 91.4 °F /  33 °C 51.6 °F /  10.9 °C 29.57in /  1001.2hPa WNW 2.9mph /  4.7km/h 12.0mph /  19.3km/h 26% 0.00in /  0mm 483.0 W/m2
14:55 90.3 °F /  32.4 °C 51.8 °F /  11 °C 29.57in /  1001.2hPa North 0.9mph /  1.4km/h 7.0mph /  11.3km/h 27% 0.00in /  0mm 264.0 W/m2
15:00 89.6 °F /  32 °C 51.3 °F /  10.7 °C 29.57in /  1001.2hPa East 2.9mph /  4.7km/h 7.0mph /  11.3km/h 27% 0.00in /  0mm 237.0 W/m2
15:05 88.9 °F /  31.6 °C 51.6 °F /  10.9 °C 29.57in /  1001.2hPa SSE 4.9mph /  7.9km/h 7.0mph /  11.3km/h 28% 0.00in /  0mm 216.0 W/m2
15:10 88.3 °F /  31.3 °C 51.1 °F /  10.6 °C 29.57in /  1001.2hPa SE 4.0mph /  6.4km/h 6.0mph /  9.7km/h 28% 0.00in /  0mm 197.0 W/m2
15:15 88.0 °F /  31.1 °C 50.7 °F /  10.4 °C 29.57in /  1001.2hPa ESE 6.9mph /  11.1km/h 8.0mph /  12.9km/h 28% 0.00in /  0mm 172.0 W/m2
15:20 87.4 °F /  30.8 °C 50.4 °F /  10.2 °C 29.57in /  1001.2hPa ESE 2.9mph /  4.7km/h 7.0mph /  11.3km/h 28% 0.00in /  0mm 167.0 W/m2
15:26 87.1 °F /  30.6 °C 49.1 °F /  9.5 °C 29.56in /  1000.9hPa South 4.0mph /  6.4km/h 4.0mph /  6.4km/h 27% 0.00in /  0mm 200.0 W/m2
15:31 86.7 °F /  30.4 °C 49.6 °F /  9.8 °C 29.56in /  1000.9hPa ENE 4.9mph /  7.9km/h 5.0mph /  8km/h 28% 0.00in /  0mm 218.0 W/m2
15:36 86.5 °F /  30.3 °C 49.6 °F /  9.8 °C 29.56in /  1000.9hPa Calm   1.0mph /  1.6km/h 28% 0.00in /  0mm 223.0 W/m2
15:42 86.5 °F /  30.3 °C 50.5 °F /  10.3 °C 29.55in /  1000.6hPa Calm   2.0mph /  3.2km/h 29% 0.00in /  0mm 209.0 W/m2
15:47 86.5 °F /  30.3 °C 50.5 °F /  10.3 °C 29.55in /  1000.6hPa NNE 0.9mph /  1.4km/h 2.0mph /  3.2km/h 29% 0.00in /  0mm 258.0 W/m2
15:52 86.7 °F /  30.4 °C 49.6 °F /  9.8 °C 29.55in /  1000.6hPa Calm   4.0mph /  6.4km/h 28% 0.00in /  0mm 381.0 W/m2
15:58 87.1 °F /  30.6 °C 49.1 °F /  9.5 °C 29.55in /  1000.6hPa ENE 4.0mph /  6.4km/h 6.0mph /  9.7km/h 27% 0.00in /  0mm 954.0 W/m2
16:03 88.2 °F /  31.2 °C 50.0 °F /  10 °C 29.54in /  1000.2hPa ESE 2.9mph /  4.7km/h 5.0mph /  8km/h 27% 0.00in /  0mm 949.0 W/m2
16:08 89.4 °F /  31.9 °C 50.0 °F /  10 °C 29.54in /  1000.2hPa SSW 0.9mph /  1.4km/h 8.0mph /  12.9km/h 26% 0.00in /  0mm 891.0 W/m2
16:14 90.7 °F /  32.6 °C 51.1 °F /  10.6 °C 29.54in /  1000.2hPa West 2.9mph /  4.7km/h 5.0mph /  8km/h 26% 0.00in /  0mm 865.0 W/m2
16:19 91.6 °F /  33.1 °C 50.7 °F /  10.4 °C 29.54in /  1000.2hPa SSE 4.0mph /  6.4km/h 4.0mph /  6.4km/h 25% 0.00in /  0mm 798.0 W/m2
16:24 91.8 °F /  33.2 °C 49.8 °F /  9.9 °C 29.54in /  1000.2hPa SSW 0.9mph /  1.4km/h 8.0mph /  12.9km/h 24% 0.00in /  0mm 285.0 W/m2
16:29 91.4 °F /  33 °C 49.5 °F /  9.7 °C 29.54in /  1000.2hPa North 2.0mph /  3.2km/h 7.0mph /  11.3km/h 24% 0.00in /  0mm 186.0 W/m2
16:34 90.7 °F /  32.6 °C 50.0 °F /  10 °C 29.54in /  1000.2hPa SE 2.0mph /  3.2km/h 7.0mph /  11.3km/h 25% 0.00in /  0mm 155.0 W/m2
16:40 89.4 °F /  31.9 °C 50.0 °F /  10 °C 29.54in /  1000.2hPa ENE 2.0mph /  3.2km/h 9.0mph /  14.5km/h 26% 0.00in /  0mm 141.0 W/m2
16:45 88.9 °F /  31.6 °C 49.6 °F /  9.8 °C 29.54in /  1000.2hPa SSE 6.0mph /  9.7km/h 8.0mph /  12.9km/h 26% 0.00in /  0mm 162.0 W/m2
16:50 88.3 °F /  31.3 °C 50.2 °F /  10.1 °C 29.53in /  999.9hPa South 2.9mph /  4.7km/h 5.0mph /  8km/h 27% 0.00in /  0mm 174.0 W/m2
16:55 88.2 °F /  31.2 °C 50.0 °F /  10 °C 29.53in /  999.9hPa SE 2.0mph /  3.2km/h 6.0mph /  9.7km/h 27% 0.00in /  0mm 148.0 W/m2
17:00 87.8 °F /  31 °C 50.7 °F /  10.4 °C 29.53in /  999.9hPa SSW 2.0mph /  3.2km/h 5.0mph /  8km/h 28% 0.00in /  0mm 120.0 W/m2
17:05 87.4 °F /  30.8 °C 50.4 °F /  10.2 °C 29.53in /  999.9hPa SSW 2.0mph /  3.2km/h 5.0mph /  8km/h 28% 0.00in /  0mm 135.0 W/m2
17:11 87.3 °F /  30.7 °C 50.2 °F /  10.1 °C 29.53in /  999.9hPa Calm   8.0mph /  12.9km/h 28% 0.00in /  0mm 114.0 W/m2
17:16 87.1 °F /  30.6 °C 50.0 °F /  10 °C 29.53in /  999.9hPa SE 2.9mph /  4.7km/h 10.0mph /  16.1km/h 28% 0.00in /  0mm 118.0 W/m2
17:21 86.7 °F /  30.4 °C 50.7 °F /  10.4 °C 29.53in /  999.9hPa SE 0.9mph /  1.4km/h 9.0mph /  14.5km/h 29% 0.00in /  0mm 134.0 W/m2
17:27 86.7 °F /  30.4 °C 49.6 °F /  9.8 °C 29.53in /  999.9hPa SE 2.0mph /  3.2km/h 4.0mph /  6.4km/h 28% 0.00in /  0mm 162.0 W/m2
17:32 86.7 °F /  30.4 °C 50.7 °F /  10.4 °C 29.52in /  999.5hPa SW 6.0mph /  9.7km/h 6.0mph /  9.7km/h 29% 0.00in /  0mm 315.0 W/m2
17:37 86.9 °F /  30.5 °C 50.9 °F /  10.5 °C 29.52in /  999.5hPa South 6.9mph /  11.1km/h 8.0mph /  12.9km/h 29% 0.00in /  0mm 153.0 W/m2
17:43 86.9 °F /  30.5 °C 50.9 °F /  10.5 °C 29.52in /  999.5hPa SE 2.0mph /  3.2km/h 8.0mph /  12.9km/h 29% 0.00in /  0mm 148.0 W/m2
17:48 86.7 °F /  30.4 °C 50.7 °F /  10.4 °C 29.52in /  999.5hPa West 0.9mph /  1.4km/h 8.0mph /  12.9km/h 29% 0.00in /  0mm 100.0 W/m2
17:53 86.5 °F /  30.3 °C 50.5 °F /  10.3 °C 29.52in /  999.5hPa SW 6.0mph /  9.7km/h 7.0mph /  11.3km/h 29% 0.00in /  0mm 98.0 W/m2
17:58 86.4 °F /  30.2 °C 50.4 °F /  10.2 °C 29.52in /  999.5hPa SW 2.0mph /  3.2km/h 8.0mph /  12.9km/h 29% 0.00in /  0mm 104.0 W/m2
18:03 86.0 °F /  30 °C 50.9 °F /  10.5 °C 29.52in /  999.5hPa South 6.0mph /  9.7km/h 8.0mph /  12.9km/h 30% 0.00in /  0mm 107.0 W/m2
18:09 85.6 °F /  29.8 °C 51.6 °F /  10.9 °C 29.52in /  999.5hPa SSW 2.0mph /  3.2km/h 10.0mph /  16.1km/h 31% 0.00in /  0mm 100.0 W/m2
18:14 85.3 °F /  29.6 °C 51.3 °F /  10.7 °C 29.52in /  999.5hPa SE 6.0mph /  9.7km/h 11.0mph /  17.7km/h 31% 0.00in /  0mm 93.0 W/m2
18:19 85.3 °F /  29.6 °C 51.3 °F /  10.7 °C 29.52in /  999.5hPa SW 2.9mph /  4.7km/h 8.0mph /  12.9km/h 31% 0.00in /  0mm 88.0 W/m2
18:25 85.3 °F /  29.6 °C 51.3 °F /  10.7 °C 29.53in /  999.9hPa South 2.0mph /  3.2km/h 5.0mph /  8km/h 31% 0.00in /  0mm 98.0 W/m2
18:30 85.3 °F /  29.6 °C 51.3 °F /  10.7 °C 29.53in /  999.9hPa SE 0.9mph /  1.4km/h 5.0mph /  8km/h 31% 0.00in /  0mm 63.0 W/m2
18:35 85.3 °F /  29.6 °C 51.3 °F /  10.7 °C 29.53in /  999.9hPa SSW 2.0mph /  3.2km/h 10.0mph /  16.1km/h 31% 0.00in /  0mm 40.0 W/m2
18:40 84.9 °F /  29.4 °C 50.9 °F /  10.5 °C 29.53in /  999.9hPa SSE 2.9mph /  4.7km/h 5.0mph /  8km/h 31% 0.00in /  0mm 16.0 W/m2
18:45 84.6 °F /  29.2 °C 50.5 °F /  10.3 °C 29.53in /  999.9hPa Calm   6.0mph /  9.7km/h 31% 0.00in /  0mm 18.0 W/m2
18:50 84.4 °F /  29.1 °C 50.4 °F /  10.2 °C 29.53in /  999.9hPa SSE 0.9mph /  1.4km/h 6.0mph /  9.7km/h 31% 0.00in /  0mm 21.0 W/m2
18:55 84.2 °F /  29 °C 50.4 °F /  10.2 °C 29.53in /  999.9hPa SSW 6.0mph /  9.7km/h 8.0mph /  12.9km/h 31% 0.00in /  0mm 23.0 W/m2
19:01 83.8 °F /  28.8 °C 50.0 °F /  10 °C 29.54in /  1000.2hPa SSW 0.9mph /  1.4km/h 5.0mph /  8km/h 31% 0.00in /  0mm 25.0 W/m2
19:06 83.7 °F /  28.7 °C 50.7 °F /  10.4 °C 29.54in /  1000.2hPa South 0.9mph /  1.4km/h 6.0mph /  9.7km/h 32% 0.00in /  0mm 19.0 W/m2
19:11 83.7 °F /  28.7 °C 49.8 °F /  9.9 °C 29.54in /  1000.2hPa Calm   6.0mph /  9.7km/h 31% 0.00in /  0mm 21.0 W/m2
19:16 83.5 °F /  28.6 °C 49.6 °F /  9.8 °C 29.55in /  1000.6hPa Calm   4.0mph /  6.4km/h 31% 0.00in /  0mm 30.0 W/m2
19:21 83.5 °F /  28.6 °C 50.5 °F /  10.3 °C 29.55in /  1000.6hPa SSE 4.9mph /  7.9km/h 5.0mph /  8km/h 32% 0.00in /  0mm 25.0 W/m2
19:26 83.5 °F /  28.6 °C 50.5 °F /  10.3 °C 29.55in /  1000.6hPa Calm   8.0mph /  12.9km/h 32% 0.00in /  0mm 16.0 W/m2
19:31 83.1 °F /  28.4 °C 51.1 °F /  10.6 °C 29.56in /  1000.9hPa Calm   8.0mph /  12.9km/h 33% 0.00in /  0mm 11.0 W/m2
19:36 82.9 °F /  28.3 °C 52.5 °F /  11.4 °C 29.56in /  1000.9hPa Calm   4.0mph /  6.4km/h 35% 0.00in /  0mm 5.0 W/m2
19:37 82.8 °F /  28.2 °C 52.3 °F /  11.3 °C 29.56in /  1000.9hPa NNE 2.9mph /  4.7km/h 9.0mph /  14.5km/h 35% 0.00in /  0mm 5.0 W/m2
19:42 82.4 °F /  28 °C 52.0 °F /  11.1 °C 29.57in /  1001.2hPa Calm   3.0mph /  4.8km/h 35% 0.00in /  0mm 0.0 W/m2
19:47 82.0 °F /  27.8 °C 51.6 °F /  10.9 °C 29.57in /  1001.2hPa East 2.9mph /  4.7km/h 5.0mph /  8km/h 35% 0.00in /  0mm 0.0 W/m2
19:52 81.9 °F /  27.7 °C 51.4 °F /  10.8 °C 29.57in /  1001.2hPa East 2.0mph /  3.2km/h 4.0mph /  6.4km/h 35% 0.00in /  0mm 0.0 W/m2
19:57 81.7 °F /  27.6 °C 51.4 °F /  10.8 °C 29.57in /  1001.2hPa ENE 4.9mph /  7.9km/h 6.0mph /  9.7km/h 35% 0.00in /  0mm 0.0 W/m2
20:02 81.5 °F /  27.5 °C 52.7 °F /  11.5 °C 29.57in /  1001.2hPa Calm   5.0mph /  8km/h 37% 0.00in /  0mm 0.0 W/m2
20:07 81.1 °F /  27.3 °C 53.8 °F /  12.1 °C 29.57in /  1001.2hPa NE 0.9mph /  1.4km/h 5.0mph /  8km/h 39% 0.00in /  0mm 0.0 W/m2
20:12 81.0 °F /  27.2 °C 53.6 °F /  12 °C 29.58in /  1001.6hPa NE 2.0mph /  3.2km/h 6.0mph /  9.7km/h 39% 0.00in /  0mm 0.0 W/m2
20:18 80.6 °F /  27 °C 53.4 °F /  11.9 °C 29.58in /  1001.6hPa NE 4.0mph /  6.4km/h 5.0mph /  8km/h 39% 0.00in /  0mm 0.0 W/m2
20:23 80.4 °F /  26.9 °C 54.0 °F /  12.2 °C 29.58in /  1001.6hPa NE 0.9mph /  1.4km/h 7.0mph /  11.3km/h 40% 0.00in /  0mm 0.0 W/m2
20:28 80.2 °F /  26.8 °C 55.0 °F /  12.8 °C 29.58in /  1001.6hPa ENE 4.0mph /  6.4km/h 4.0mph /  6.4km/h 42% 0.00in /  0mm 0.0 W/m2
20:33 80.1 °F /  26.7 °C 56.1 °F /  13.4 °C 29.59in /  1001.9hPa East 0.9mph /  1.4km/h 6.0mph /  9.7km/h 44% 0.00in /  0mm 0.0 W/m2
20:38 79.9 °F /  26.6 °C 57.2 °F /  14 °C 29.59in /  1001.9hPa Calm   4.0mph /  6.4km/h 46% 0.00in /  0mm 0.0 W/m2
20:43 79.5 °F /  26.4 °C 56.8 °F /  13.8 °C 29.59in /  1001.9hPa Calm   1.0mph /  1.6km/h 46% 0.00in /  0mm 0.0 W/m2
20:48 79.3 °F /  26.3 °C 58.5 °F /  14.7 °C 29.59in /  1001.9hPa NE 0.9mph /  1.4km/h 1.0mph /  1.6km/h 49% 0.00in /  0mm 0.0 W/m2
20:53 79.0 °F /  26.1 °C 61.9 °F /  16.6 °C 29.59in /  1001.9hPa Calm   1.0mph /  1.6km/h 56% 0.01in /  0.25mm 0.0 W/m2
20:58 78.1 °F /  25.6 °C 63.5 °F /  17.5 °C 29.59in /  1001.9hPa NNW 0.9mph /  1.4km/h 2.0mph /  3.2km/h 61% 0.01in /  0.25mm 0.0 W/m2
21:04 76.5 °F /  24.7 °C 61.5 °F /  16.4 °C 29.59in /  1001.9hPa Calm   3.0mph /  4.8km/h 60% 0.01in /  0.25mm 0.0 W/m2
21:09 75.2 °F /  24 °C 61.3 °F /  16.3 °C 29.59in /  1001.9hPa North 2.0mph /  3.2km/h 3.0mph /  4.8km/h 62% 0.01in /  0.25mm 0.0 W/m2
21:14 74.3 °F /  23.5 °C 59.5 °F /  15.3 °C 29.59in /  1001.9hPa North 2.0mph /  3.2km/h 6.0mph /  9.7km/h 60% 0.01in /  0.25mm 0.0 W/m2
21:19 73.8 °F /  23.2 °C 59.5 °F /  15.3 °C 29.59in /  1001.9hPa NNW 7.0mph /  11.3km/h 7.0mph /  11.3km/h 61% 0.01in /  0.25mm 0.0 W/m2
21:24 73.4 °F /  23 °C 59.2 °F /  15.1 °C 29.59in /  1001.9hPa North 2.9mph /  4.7km/h 6.0mph /  9.7km/h 61% 0.01in /  0.25mm 0.0 W/m2
21:29 73.2 °F /  22.9 °C 58.1 °F /  14.5 °C 29.60in /  1002.3hPa NNW 4.0mph /  6.4km/h 6.0mph /  9.7km/h 59% 0.01in /  0.25mm 0.0 W/m2
21:34 73.0 °F /  22.8 °C 57.9 °F /  14.4 °C 29.60in /  1002.3hPa NNW 2.0mph /  3.2km/h 5.0mph /  8km/h 59% 0.01in /  0.25mm 0.0 W/m2
21:39 72.9 °F /  22.7 °C 58.1 °F /  14.5 °C 29.60in /  1002.3hPa NNW 2.0mph /  3.2km/h 6.0mph /  9.7km/h 60% 0.01in /  0.25mm 0.0 W/m2
21:45 72.7 °F /  22.6 °C 57.9 °F /  14.4 °C 29.60in /  1002.3hPa North 2.0mph /  3.2km/h 4.0mph /  6.4km/h 60% 0.01in /  0.25mm 0.0 W/m2
21:50 72.7 °F /  22.6 °C 58.5 °F /  14.7 °C 29.60in /  1002.3hPa WNW 0.9mph /  1.4km/h 3.0mph /  4.8km/h 61% 0.01in /  0.25mm 0.0 W/m2
21:55 72.7 °F /  22.6 °C 57.9 °F /  14.4 °C 29.61in /  1002.6hPa NNW 4.0mph /  6.4km/h 4.0mph /  6.4km/h 60% 0.00in /  0mm 0.0 W/m2
22:00 72.7 °F /  22.6 °C 57.9 °F /  14.4 °C 29.61in /  1002.6hPa NNW 2.0mph /  3.2km/h 6.0mph /  9.7km/h 60% 0.00in /  0mm 0.0 W/m2
22:05 72.9 °F /  22.7 °C 58.1 °F /  14.5 °C 29.61in /  1002.6hPa Calm   3.0mph /  4.8km/h 60% 0.00in /  0mm 0.0 W/m2
22:10 72.9 °F /  22.7 °C 58.1 °F /  14.5 °C 29.61in /  1002.6hPa Calm   2.0mph /  3.2km/h 60% 0.00in /  0mm 0.0 W/m2
22:16 73.0 °F /  22.8 °C 58.3 °F /  14.6 °C 29.61in /  1002.6hPa North 0.9mph /  1.4km/h 2.0mph /  3.2km/h 60% 0.00in /  0mm 0.0 W/m2
22:21 73.2 °F /  22.9 °C 58.5 °F /  14.7 °C 29.61in /  1002.6hPa Calm   3.0mph /  4.8km/h 60% 0.00in /  0mm 0.0 W/m2
22:26 73.2 °F /  22.9 °C 58.5 °F /  14.7 °C 29.62in /  1002.9hPa NNE 2.0mph /  3.2km/h 3.0mph /  4.8km/h 60% 0.00in /  0mm 0.0 W/m2
22:31 73.6 °F /  23.1 °C 58.3 °F /  14.6 °C 29.62in /  1002.9hPa North 0.9mph /  1.4km/h 3.0mph /  4.8km/h 59% 0.00in /  0mm 0.0 W/m2
22:36 73.6 °F /  23.1 °C 58.3 °F /  14.6 °C 29.62in /  1002.9hPa NNW 2.0mph /  3.2km/h 2.0mph /  3.2km/h 59% 0.00in /  0mm 0.0 W/m2
22:42 73.8 °F /  23.2 °C 59.0 °F /  15 °C 29.61in /  1002.6hPa Calm   3.0mph /  4.8km/h 60% 0.00in /  0mm 0.0 W/m2
22:47 73.8 °F /  23.2 °C 58.5 °F /  14.7 °C 29.61in /  1002.6hPa Calm     59% 0.00in /  0mm 0.0 W/m2
22:52 73.6 °F /  23.1 °C 58.3 °F /  14.6 °C 29.62in /  1002.9hPa Calm     59% 0.00in /  0mm 0.0 W/m2
22:57 73.6 °F /  23.1 °C 57.9 °F /  14.4 °C 29.62in /  1002.9hPa Calm   1.0mph /  1.6km/h 58% 0.00in /  0mm 0.0 W/m2
23:02 73.6 °F /  23.1 °C 58.3 °F /  14.6 °C 29.62in /  1002.9hPa Calm     59% 0.00in /  0mm 0.0 W/m2
23:07 73.6 °F /  23.1 °C 58.3 °F /  14.6 °C 29.62in /  1002.9hPa Calm   1.0mph /  1.6km/h 59% 0.00in /  0mm 0.0 W/m2
23:13 73.6 °F /  23.1 °C 58.3 °F /  14.6 °C 29.62in /  1002.9hPa Calm   1.0mph /  1.6km/h 59% 0.00in /  0mm 0.0 W/m2
23:18 73.4 °F /  23 °C 58.3 °F /  14.6 °C 29.61in /  1002.6hPa Calm     59% 0.00in /  0mm 0.0 W/m2
23:26 73.2 °F /  22.9 °C 58.1 °F /  14.5 °C 29.61in /  1002.6hPa Calm     59% 0.00in /  0mm 0.0 W/m2
23:31 73.0 °F /  22.8 °C 57.4 °F /  14.1 °C 29.61in /  1002.6hPa Calm     58% 0.00in /  0mm 0.0 W/m2
23:36 73.0 °F /  22.8 °C 57.9 °F /  14.4 °C 29.61in /  1002.6hPa Calm     59% 0.00in /  0mm 0.0 W/m2
23:41 72.9 °F /  22.7 °C 57.7 °F /  14.3 °C 29.61in /  1002.6hPa North 0.9mph /  1.4km/h 1.0mph /  1.6km/h 59% 0.00in /  0mm 0.0 W/m2
23:46 72.7 °F /  22.6 °C 57.6 °F /  14.2 °C 29.61in /  1002.6hPa Calm     59% 0.00in /  0mm 0.0 W/m2
23:51 72.7 °F /  22.6 °C 57.9 °F /  14.4 °C 29.61in /  1002.6hPa ENE 0.9mph /  1.4km/h 2.0mph /  3.2km/h 60% 0.00in /  0mm 0.0 W/m2
23:56 72.5 °F /  22.5 °C 57.7 °F /  14.3 °C 29.61in /  1002.6hPa Calm   1.0mph /  1.6km/h 60% 0.00in /  0mm 0.0 W/m2
Olympia, Windhoek, Namibia
Compliments of Weather Underground - 3.25 mb